VTREG BGGH-BIRK
Flight info
| Callsign | VTREG |
|---|---|
| Flight time | N/A |
| Altitude | 27000 |
| Route | EVULO1A EVULO Y47 DA UT592 NONRO/M047F290 DCT INGAN |
| Aircraft | SF50/L-BDGRSWY/LB2U2 |
Departure
| Time | 2026-04-23 20:42 |
|---|---|
| Airport | Nuuk International Airport (BGGH) |
Arrival
| Time | N/A |
|---|---|
| Airport | Reykjavík Domestic Airport (BIRK) |
| Time | Latitude | Longitude | Altitude | Speed | Heading |
|---|---|---|---|---|---|
| 2026-04-23 20:26 | 64.19130 | -51.67448 | 275 ft | 0 kts | 201° |
| 2026-04-23 20:39 | 64.19127 | -51.67447 | 275 ft | 3 kts | 148° |
| 2026-04-23 20:39 | 64.19087 | -51.67461 | 275 ft | 7 kts | 202° |
| 2026-04-23 20:40 | 64.19063 | -51.67538 | 275 ft | 5 kts | 246° |
| 2026-04-23 20:40 | 64.19060 | -51.67571 | 275 ft | 0 kts | 291° |
| 2026-04-23 20:40 | 64.19068 | -51.67604 | 275 ft | 7 kts | 299° |
| 2026-04-23 20:41 | 64.19084 | -51.67775 | 272 ft | 13 kts | 220° |
| 2026-04-23 20:41 | 64.18996 | -51.67847 | 274 ft | 14 kts | 198° |
| 2026-04-23 20:41 | 64.18918 | -51.67886 | 274 ft | 9 kts | 221° |
| 2026-04-23 20:41 | 64.18921 | -51.67907 | 274 ft | 0 kts | 21° |
| 2026-04-23 20:42 | 64.19024 | -51.67828 | 273 ft | 43 kts | 20° |
| 2026-04-23 20:42 | 64.19481 | -51.67458 | 281 ft | 93 kts | 21° |
| 2026-04-23 20:42 | 64.20140 | -51.66910 | 556 ft | 107 kts | 19° |
| 2026-04-23 20:42 | 64.20858 | -51.66687 | 985 ft | 108 kts | 360° |
| 2026-04-23 20:43 | 64.21672 | -51.66967 | 1152 ft | 132 kts | 334° |
| 2026-04-23 20:43 | 64.22266 | -51.68612 | 1532 ft | 138 kts | 293° |
| 2026-04-23 20:43 | 64.22209 | -51.70793 | 1910 ft | 144 kts | 245° |
| 2026-04-23 20:43 | 64.21764 | -51.71927 | 2154 ft | 147 kts | 212° |
| 2026-04-23 20:44 | 64.20434 | -51.72627 | 2623 ft | 148 kts | 190° |
| 2026-04-23 20:44 | 64.19424 | -51.73128 | 2986 ft | 150 kts | 192° |
| 2026-04-23 20:44 | 64.18399 | -51.73618 | 3350 ft | 150 kts | 191° |
| 2026-04-23 20:44 | 64.17361 | -51.74111 | 3710 ft | 162 kts | 191° |
| 2026-04-23 20:45 | 64.16186 | -51.74661 | 4093 ft | 177 kts | 191° |
| 2026-04-23 20:45 | 64.15001 | -51.75224 | 4741 ft | 172 kts | 191° |
| 2026-04-23 20:45 | 64.13829 | -51.75760 | 5337 ft | 171 kts | 188° |
| 2026-04-23 20:45 | 64.12648 | -51.75522 | 5857 ft | 173 kts | 163° |
| 2026-04-23 20:46 | 64.11570 | -51.74272 | 6351 ft | 176 kts | 149° |
| 2026-04-23 20:46 | 64.10508 | -51.72820 | 6832 ft | 178 kts | 152° |
| 2026-04-23 20:46 | 64.09433 | -51.71401 | 7283 ft | 179 kts | 152° |
| 2026-04-23 20:46 | 64.08362 | -51.69961 | 7723 ft | 180 kts | 151° |
| 2026-04-23 20:47 | 64.07279 | -51.68506 | 8152 ft | 181 kts | 151° |
| 2026-04-23 20:47 | 64.06191 | -51.67049 | 8578 ft | 181 kts | 151° |
| 2026-04-23 20:47 | 64.05191 | -51.65339 | 8968 ft | 185 kts | 133° |
| 2026-04-23 20:47 | 64.04535 | -51.62768 | 9387 ft | 187 kts | 111° |
| 2026-04-23 20:48 | 64.04355 | -51.60830 | 9674 ft | 190 kts | 96° |
| 2026-04-23 20:48 | 64.04633 | -51.56877 | 10191 ft | 193 kts | 74° |
| 2026-04-23 20:48 | 64.05008 | -51.53925 | 10540 ft | 194 kts | 76° |
| 2026-04-23 20:48 | 64.05367 | -51.50945 | 10881 ft | 195 kts | 76° |
| 2026-04-23 20:49 | 64.05740 | -51.47955 | 11228 ft | 197 kts | 76° |
| 2026-04-23 20:49 | 64.05989 | -51.45953 | 11460 ft | 197 kts | 76° |
| 2026-04-23 20:49 | 64.06495 | -51.41905 | 11927 ft | 199 kts | 76° |
| 2026-04-23 20:49 | 64.06745 | -51.39887 | 12158 ft | 200 kts | 76° |
| 2026-04-23 20:50 | 64.07254 | -51.35789 | 12622 ft | 201 kts | 76° |
| 2026-04-23 20:50 | 64.07508 | -51.33743 | 12855 ft | 202 kts | 76° |
| 2026-04-23 20:50 | 64.07892 | -51.30634 | 13204 ft | 204 kts | 76° |
| 2026-04-23 20:50 | 64.08279 | -51.27515 | 13558 ft | 205 kts | 76° |
| 2026-04-23 20:51 | 64.08664 | -51.24376 | 13912 ft | 206 kts | 76° |
| 2026-04-23 20:51 | 64.09054 | -51.21213 | 14252 ft | 207 kts | 76° |
| 2026-04-23 20:51 | 64.09449 | -51.18038 | 14565 ft | 208 kts | 73° |
| 2026-04-23 20:51 | 64.10137 | -51.15102 | 14854 ft | 211 kts | 58° |
| 2026-04-23 20:52 | 64.10917 | -51.12256 | 15167 ft | 211 kts | 61° |
| 2026-04-23 20:52 | 64.11665 | -51.09360 | 15484 ft | 212 kts | 60° |
| 2026-04-23 20:52 | 64.12433 | -51.06459 | 15807 ft | 213 kts | 60° |
| 2026-04-23 20:52 | 64.13203 | -51.03548 | 16139 ft | 214 kts | 60° |
| 2026-04-23 20:53 | 64.13977 | -51.00621 | 16471 ft | 215 kts | 60° |
| 2026-04-23 20:53 | 64.14753 | -50.97692 | 16816 ft | 216 kts | 60° |
| 2026-04-23 20:53 | 64.15534 | -50.94730 | 17165 ft | 217 kts | 61° |
| 2026-04-23 20:53 | 64.16316 | -50.91759 | 17489 ft | 218 kts | 61° |
| 2026-04-23 20:54 | 64.17099 | -50.88780 | 17829 ft | 219 kts | 61° |
| 2026-04-23 20:54 | 64.17887 | -50.85780 | 18174 ft | 220 kts | 61° |
| 2026-04-23 20:54 | 64.18678 | -50.82764 | 18515 ft | 221 kts | 61° |
| 2026-04-23 20:54 | 64.19464 | -50.79761 | 18824 ft | 222 kts | 61° |
| 2026-04-23 20:55 | 64.20264 | -50.76713 | 19109 ft | 223 kts | 61° |
| 2026-04-23 20:55 | 64.21075 | -50.73612 | 19401 ft | 224 kts | 61° |
| 2026-04-23 20:55 | 64.21870 | -50.70572 | 19689 ft | 225 kts | 61° |
| 2026-04-23 20:55 | 64.22685 | -50.67447 | 20001 ft | 226 kts | 61° |
| 2026-04-23 20:56 | 64.23496 | -50.64329 | 20310 ft | 227 kts | 62° |
| 2026-04-23 20:56 | 64.24299 | -50.61237 | 20615 ft | 228 kts | 62° |
| 2026-04-23 20:56 | 64.25127 | -50.58060 | 20920 ft | 230 kts | 62° |
| 2026-04-23 20:56 | 64.25937 | -50.54941 | 21215 ft | 231 kts | 62° |
| 2026-04-23 20:57 | 64.26756 | -50.51773 | 21542 ft | 230 kts | 62° |
| 2026-04-23 20:57 | 64.27586 | -50.48566 | 21888 ft | 230 kts | 62° |
| 2026-04-23 20:57 | 64.28391 | -50.45443 | 22206 ft | 230 kts | 62° |
| 2026-04-23 20:57 | 64.29207 | -50.42279 | 22538 ft | 229 kts | 62° |
| 2026-04-23 20:58 | 64.30018 | -50.39125 | 22868 ft | 229 kts | 62° |
| 2026-04-23 20:58 | 64.30828 | -50.35969 | 23200 ft | 229 kts | 62° |
| 2026-04-23 20:58 | 64.31639 | -50.32808 | 23522 ft | 228 kts | 62° |
| 2026-04-23 20:58 | 64.32446 | -50.29660 | 23857 ft | 228 kts | 62° |
| 2026-04-23 20:59 | 64.33251 | -50.26509 | 24141 ft | 228 kts | 62° |
| 2026-04-23 20:59 | 64.34059 | -50.23351 | 24407 ft | 228 kts | 62° |
| 2026-04-23 20:59 | 64.34859 | -50.20213 | 24669 ft | 228 kts | 62° |
| 2026-04-23 20:59 | 64.35659 | -50.17069 | 24931 ft | 227 kts | 62° |
| 2026-04-23 21:00 | 64.36458 | -50.13927 | 25196 ft | 227 kts | 62° |
| 2026-04-23 21:00 | 64.37257 | -50.10776 | 25463 ft | 227 kts | 62° |
| 2026-04-23 21:00 | 64.38052 | -50.07646 | 25737 ft | 226 kts | 62° |
| 2026-04-23 21:00 | 64.38773 | -50.04421 | 25970 ft | 225 kts | 72° |
| 2026-04-23 21:01 | 64.39262 | -50.01000 | 26224 ft | 224 kts | 73° |
| 2026-04-23 21:01 | 64.39786 | -49.97602 | 26478 ft | 224 kts | 72° |
| 2026-04-23 21:01 | 64.40307 | -49.94244 | 26726 ft | 224 kts | 72° |
| 2026-04-23 21:01 | 64.40822 | -49.90839 | 26973 ft | 224 kts | 72° |
| 2026-04-23 21:02 | 64.41335 | -49.87450 | 27227 ft | 224 kts | 72° |
| 2026-04-23 21:02 | 64.41854 | -49.84022 | 27362 ft | 229 kts | 72° |
| 2026-04-23 21:02 | 64.42390 | -49.80458 | 27374 ft | 240 kts | 72° |
| 2026-04-23 21:02 | 64.42953 | -49.76723 | 27370 ft | 250 kts | 72° |
| 2026-04-23 21:03 | 64.43536 | -49.72854 | 27371 ft | 259 kts | 72° |
| 2026-04-23 21:03 | 64.44135 | -49.68865 | 27371 ft | 266 kts | 72° |
| 2026-04-23 21:03 | 64.44748 | -49.64758 | 27370 ft | 272 kts | 72° |
| 2026-04-23 21:03 | 64.45372 | -49.60577 | 27365 ft | 277 kts | 72° |
| 2026-04-23 21:04 | 64.46003 | -49.56336 | 27368 ft | 282 kts | 72° |
| 2026-04-23 21:04 | 64.46646 | -49.52011 | 27363 ft | 286 kts | 72° |
| 2026-04-23 21:04 | 64.47298 | -49.47610 | 27361 ft | 289 kts | 72° |
| 2026-04-23 21:04 | 64.47952 | -49.43182 | 27356 ft | 292 kts | 72° |
| 2026-04-23 21:05 | 64.48610 | -49.38713 | 27354 ft | 295 kts | 72° |
| 2026-04-23 21:05 | 64.49268 | -49.34242 | 27349 ft | 297 kts | 72° |
| 2026-04-23 21:05 | 64.49937 | -49.29674 | 27347 ft | 300 kts | 72° |
| 2026-04-23 21:05 | 64.50607 | -49.25090 | 27347 ft | 302 kts | 72° |
| 2026-04-23 21:06 | 64.51286 | -49.20432 | 27339 ft | 304 kts | 72° |
| 2026-04-23 21:06 | 64.51965 | -49.15764 | 27337 ft | 307 kts | 72° |
| 2026-04-23 21:06 | 64.52650 | -49.11048 | 27337 ft | 309 kts | 72° |
| 2026-04-23 21:06 | 64.53333 | -49.06319 | 27331 ft | 310 kts | 72° |
| 2026-04-23 21:07 | 64.54022 | -49.01546 | 27325 ft | 312 kts | 72° |
| 2026-04-23 21:07 | 64.54705 | -48.96796 | 27321 ft | 314 kts | 72° |
| 2026-04-23 21:07 | 64.55398 | -48.91969 | 27317 ft | 315 kts | 72° |
| 2026-04-23 21:07 | 64.56089 | -48.87141 | 27313 ft | 314 kts | 72° |
| 2026-04-23 21:08 | 64.56775 | -48.82336 | 27305 ft | 313 kts | 72° |
| 2026-04-23 21:08 | 64.57460 | -48.77527 | 27302 ft | 313 kts | 72° |
| 2026-04-23 21:08 | 64.58142 | -48.72718 | 27297 ft | 313 kts | 72° |
| 2026-04-23 21:08 | 64.58822 | -48.67918 | 27475 ft | 306 kts | 72° |
| 2026-04-23 21:09 | 64.59459 | -48.63415 | 28283 ft | 278 kts | 72° |
| 2026-04-23 21:09 | 64.60034 | -48.59336 | 29093 ft | 252 kts | 72° |
| 2026-04-23 21:09 | 64.60576 | -48.55472 | 29273 ft | 254 kts | 73° |
| 2026-04-23 21:09 | 64.61130 | -48.51499 | 29275 ft | 261 kts | 72° |
| 2026-04-23 21:10 | 64.61700 | -48.47428 | 29282 ft | 267 kts | 72° |
| 2026-04-23 21:10 | 64.62281 | -48.43271 | 29284 ft | 272 kts | 72° |
| 2026-04-23 21:10 | 64.62870 | -48.39042 | 29286 ft | 277 kts | 72° |
| 2026-04-23 21:10 | 64.63419 | -48.34714 | 29286 ft | 280 kts | 75° |
| 2026-04-23 21:11 | 64.63975 | -48.30370 | 29287 ft | 284 kts | 73° |
| 2026-04-23 21:11 | 64.64561 | -48.25887 | 29285 ft | 287 kts | 73° |
| 2026-04-23 21:11 | 64.65121 | -48.21455 | 29287 ft | 290 kts | 74° |
| 2026-04-23 21:11 | 64.65693 | -48.16871 | 29285 ft | 292 kts | 74° |
| 2026-04-23 21:12 | 64.66267 | -48.12296 | 29290 ft | 295 kts | 74° |
| 2026-04-23 21:12 | 64.66839 | -48.07743 | 29293 ft | 297 kts | 74° |
| 2026-04-23 21:12 | 64.67426 | -48.03045 | 29289 ft | 299 kts | 74° |
| 2026-04-23 21:12 | 64.68001 | -47.98423 | 29294 ft | 301 kts | 74° |
| 2026-04-23 21:13 | 64.69177 | -47.88943 | 29291 ft | 305 kts | 74° |
| 2026-04-23 21:13 | 64.70358 | -47.79354 | 29295 ft | 309 kts | 74° |
| 2026-04-23 21:14 | 64.71547 | -47.69649 | 29301 ft | 312 kts | 74° |
| 2026-04-23 21:14 | 64.71942 | -47.66412 | 29300 ft | 313 kts | 74° |
| 2026-04-23 21:15 | 64.73983 | -47.49574 | 29298 ft | 311 kts | 75° |
| 2026-04-23 21:15 | 64.75155 | -47.39818 | 29300 ft | 311 kts | 75° |
| 2026-04-23 21:16 | 64.76322 | -47.30056 | 29301 ft | 311 kts | 75° |
| 2026-04-23 21:16 | 64.77472 | -47.20368 | 29305 ft | 311 kts | 75° |
| 2026-04-23 21:17 | 64.78626 | -47.10590 | 29307 ft | 311 kts | 75° |
| 2026-04-23 21:17 | 64.79778 | -47.00757 | 29312 ft | 310 kts | 75° |
| 2026-04-23 21:18 | 64.80908 | -46.91051 | 29313 ft | 310 kts | 75° |
| 2026-04-23 21:18 | 64.82038 | -46.81282 | 29315 ft | 310 kts | 75° |
| 2026-04-23 21:19 | 64.83163 | -46.71494 | 29318 ft | 310 kts | 75° |
| 2026-04-23 21:19 | 64.84282 | -46.61697 | 29319 ft | 310 kts | 75° |
| 2026-04-23 21:20 | 64.85392 | -46.51898 | 29319 ft | 310 kts | 75° |
| 2026-04-23 21:20 | 64.86487 | -46.42175 | 29322 ft | 309 kts | 75° |
| 2026-04-23 21:21 | 64.87581 | -46.32392 | 29324 ft | 309 kts | 75° |
| 2026-04-23 21:21 | 64.88667 | -46.22618 | 29325 ft | 309 kts | 75° |
| 2026-04-23 21:22 | 64.89746 | -46.12838 | 29328 ft | 308 kts | 75° |
| 2026-04-23 21:22 | 64.90639 | -46.04704 | 29327 ft | 308 kts | 76° |
| 2026-04-23 21:23 | 64.91704 | -45.94927 | 29332 ft | 308 kts | 76° |
| 2026-04-23 21:23 | 64.92934 | -45.83562 | 29331 ft | 308 kts | 76° |
| 2026-04-23 21:24 | 64.93818 | -45.75355 | 29332 ft | 308 kts | 76° |
| 2026-04-23 21:24 | 64.94860 | -45.65605 | 29336 ft | 308 kts | 76° |
| 2026-04-23 21:25 | 64.95899 | -45.55809 | 29335 ft | 307 kts | 76° |
| 2026-04-23 21:25 | 64.96931 | -45.46020 | 29337 ft | 307 kts | 76° |
| 2026-04-23 21:26 | 64.97959 | -45.36204 | 29338 ft | 308 kts | 76° |
| 2026-04-23 21:26 | 64.98977 | -45.26403 | 29339 ft | 307 kts | 76° |
| 2026-04-23 21:27 | 64.99988 | -45.16602 | 29341 ft | 307 kts | 76° |
| 2026-04-23 21:27 | 65.00994 | -45.06784 | 29340 ft | 307 kts | 76° |
| 2026-04-23 21:28 | 65.01990 | -44.96977 | 29336 ft | 307 kts | 76° |
| 2026-04-23 21:28 | 65.02982 | -44.87151 | 29336 ft | 307 kts | 76° |
| 2026-04-23 21:29 | 65.03966 | -44.77331 | 29332 ft | 306 kts | 76° |
| 2026-04-23 21:29 | 65.04942 | -44.67510 | 29331 ft | 306 kts | 76° |
| 2026-04-23 21:30 | 65.05904 | -44.57764 | 29334 ft | 306 kts | 76° |
| 2026-04-23 21:30 | 65.06866 | -44.47955 | 29331 ft | 305 kts | 76° |
| 2026-04-23 21:31 | 65.07819 | -44.38150 | 29325 ft | 305 kts | 76° |
| 2026-04-23 21:31 | 65.08766 | -44.28352 | 29325 ft | 304 kts | 76° |
| 2026-04-23 21:32 | 65.09704 | -44.18562 | 29325 ft | 304 kts | 76° |
| 2026-04-23 21:32 | 65.10635 | -44.08782 | 29326 ft | 304 kts | 76° |
| 2026-04-23 21:33 | 65.11557 | -43.99030 | 29319 ft | 305 kts | 76° |
| 2026-04-23 21:33 | 65.12485 | -43.89134 | 29321 ft | 305 kts | 77° |
| 2026-04-23 21:34 | 65.13392 | -43.79379 | 29318 ft | 304 kts | 77° |
| 2026-04-23 21:34 | 65.14293 | -43.69575 | 29310 ft | 304 kts | 77° |
| 2026-04-23 21:35 | 65.15136 | -43.59730 | 29314 ft | 304 kts | 77° |
| 2026-04-23 21:35 | 65.15991 | -43.49900 | 29313 ft | 303 kts | 77° |
| 2026-04-23 21:36 | 65.17246 | -43.35186 | 29311 ft | 302 kts | 77° |
| 2026-04-23 21:37 | 65.18076 | -43.25389 | 29308 ft | 302 kts | 77° |
| 2026-04-23 21:37 | 65.18897 | -43.15590 | 29308 ft | 301 kts | 77° |
| 2026-04-23 21:38 | 65.19707 | -43.05868 | 29306 ft | 301 kts | 78° |
| 2026-04-23 21:38 | 65.20515 | -42.96065 | 29307 ft | 302 kts | 77° |
| 2026-04-23 21:39 | 65.21316 | -42.86283 | 29304 ft | 301 kts | 77° |
| 2026-04-23 21:39 | 65.22110 | -42.76481 | 29305 ft | 301 kts | 77° |
| 2026-04-23 21:40 | 65.22898 | -42.66680 | 29304 ft | 301 kts | 77° |
| 2026-04-23 21:40 | 65.23289 | -42.61793 | 29303 ft | 300 kts | 77° |
| 2026-04-23 21:40 | 65.23678 | -42.56907 | 29298 ft | 300 kts | 78° |
| 2026-04-23 21:40 | 65.24066 | -42.52014 | 29300 ft | 300 kts | 77° |
| 2026-04-23 21:41 | 65.24453 | -42.47110 | 29302 ft | 300 kts | 78° |
| 2026-04-23 21:41 | 65.24838 | -42.42213 | 29301 ft | 300 kts | 77° |
| 2026-04-23 21:41 | 65.25220 | -42.37321 | 29299 ft | 300 kts | 78° |
| 2026-04-23 21:41 | 65.25601 | -42.32427 | 29296 ft | 299 kts | 78° |
| 2026-04-23 21:42 | 65.25974 | -42.27614 | 29300 ft | 299 kts | 78° |
| 2026-04-23 21:42 | 65.26351 | -42.22728 | 29298 ft | 300 kts | 78° |
| 2026-04-23 21:42 | 65.26726 | -42.17840 | 29300 ft | 299 kts | 77° |
| 2026-04-23 21:42 | 65.27100 | -42.12945 | 29299 ft | 299 kts | 78° |
| 2026-04-23 21:43 | 65.27475 | -42.08047 | 29301 ft | 300 kts | 78° |
| 2026-04-23 21:43 | 65.27846 | -42.03150 | 29298 ft | 300 kts | 77° |
| 2026-04-23 21:43 | 65.27962 | -42.01618 | 29299 ft | 300 kts | 78° |
| 2026-04-23 21:43 | 65.28329 | -41.96726 | 29299 ft | 300 kts | 78° |
| 2026-04-23 21:44 | 65.28696 | -41.91828 | 29299 ft | 299 kts | 78° |
| 2026-04-23 21:44 | 65.29062 | -41.86931 | 29296 ft | 298 kts | 78° |
| 2026-04-23 21:44 | 65.29426 | -41.82033 | 29294 ft | 299 kts | 78° |
| 2026-04-23 21:44 | 65.29787 | -41.77144 | 29289 ft | 299 kts | 78° |
| 2026-04-23 21:45 | 65.30146 | -41.72247 | 29290 ft | 299 kts | 79° |
| 2026-04-23 21:45 | 65.30505 | -41.67343 | 29291 ft | 299 kts | 78° |
| 2026-04-23 21:45 | 65.30857 | -41.62504 | 29289 ft | 299 kts | 78° |
| 2026-04-23 21:45 | 65.31212 | -41.57615 | 29283 ft | 298 kts | 77° |
| 2026-04-23 21:46 | 65.31565 | -41.52728 | 29285 ft | 298 kts | 78° |
| 2026-04-23 21:46 | 65.31918 | -41.47825 | 29281 ft | 299 kts | 78° |
| 2026-04-23 21:46 | 65.32266 | -41.42942 | 29276 ft | 298 kts | 78° |
| 2026-04-23 21:46 | 65.32614 | -41.38038 | 29275 ft | 298 kts | 78° |
| 2026-04-23 21:47 | 65.32960 | -41.33153 | 29273 ft | 298 kts | 78° |
| 2026-04-23 21:47 | 65.33306 | -41.28272 | 29271 ft | 297 kts | 78° |
| 2026-04-23 21:47 | 65.33648 | -41.23386 | 29265 ft | 297 kts | 77° |
| 2026-04-23 21:47 | 65.33988 | -41.18500 | 29263 ft | 297 kts | 79° |
| 2026-04-23 21:48 | 65.34325 | -41.13641 | 29401 ft | 291 kts | 78° |
| 2026-04-23 21:48 | 65.34636 | -41.09074 | 30238 ft | 264 kts | 78° |
| 2026-04-23 21:48 | 65.34915 | -41.04961 | 30963 ft | 237 kts | 77° |
| 2026-04-23 21:48 | 65.35178 | -41.01153 | 31232 ft | 233 kts | 77° |
| 2026-04-23 21:49 | 65.35451 | -40.97266 | 31238 ft | 239 kts | 78° |
| 2026-04-23 21:49 | 65.35723 | -40.93298 | 31246 ft | 244 kts | 77° |
| 2026-04-23 21:49 | 65.35997 | -40.89223 | 31252 ft | 250 kts | 77° |
| 2026-04-23 21:49 | 65.36277 | -40.85074 | 31250 ft | 254 kts | 78° |
| 2026-04-23 21:50 | 65.36563 | -40.80848 | 31252 ft | 259 kts | 78° |
| 2026-04-23 21:50 | 65.36849 | -40.76558 | 31249 ft | 262 kts | 78° |
| 2026-04-23 21:50 | 65.37135 | -40.72231 | 31248 ft | 265 kts | 77° |
| 2026-04-23 21:50 | 65.37426 | -40.67850 | 31244 ft | 267 kts | 77° |
| 2026-04-23 21:51 | 65.37718 | -40.63448 | 31245 ft | 269 kts | 77° |
| 2026-04-23 21:51 | 65.38008 | -40.59059 | 31241 ft | 271 kts | 77° |
| 2026-04-23 21:51 | 65.38302 | -40.54517 | 31245 ft | 273 kts | 77° |
| 2026-04-23 21:51 | 65.38591 | -40.50083 | 31108 ft | 272 kts | 77° |
| 2026-04-23 21:52 | 65.38884 | -40.45564 | 30062 ft | 279 kts | 79° |
| 2026-04-23 21:52 | 65.39186 | -40.40905 | 28984 ft | 283 kts | 79° |
| 2026-04-23 21:52 | 65.39483 | -40.36235 | 27966 ft | 283 kts | 78° |
| 2026-04-23 21:52 | 65.39781 | -40.31561 | 27156 ft | 282 kts | 78° |
| 2026-04-23 21:53 | 65.40070 | -40.26987 | 27127 ft | 277 kts | 78° |
| 2026-04-23 21:53 | 65.40362 | -40.22383 | 27125 ft | 279 kts | 78° |
| 2026-04-23 21:53 | 65.40653 | -40.17760 | 27126 ft | 281 kts | 79° |
| 2026-04-23 21:53 | 65.40939 | -40.13157 | 26615 ft | 276 kts | 79° |
| 2026-04-23 21:54 | 65.41228 | -40.08508 | 25428 ft | 287 kts | 79° |
| 2026-04-23 21:54 | 65.41515 | -40.03861 | 25224 ft | 281 kts | 79° |
| 2026-04-23 21:54 | 65.41801 | -39.99211 | 25218 ft | 283 kts | 79° |
| 2026-04-23 21:54 | 65.42096 | -39.94515 | 25226 ft | 285 kts | 79° |
| 2026-04-23 21:55 | 65.42401 | -39.89805 | 25224 ft | 286 kts | 79° |
| 2026-04-23 21:55 | 65.42704 | -39.85073 | 25226 ft | 288 kts | 79° |
| 2026-04-23 21:55 | 65.43002 | -39.80295 | 25225 ft | 289 kts | 79° |
| 2026-04-23 21:55 | 65.43301 | -39.75509 | 25221 ft | 290 kts | 80° |
| 2026-04-23 21:56 | 65.43600 | -39.70716 | 25224 ft | 291 kts | 79° |
| 2026-04-23 21:56 | 65.43900 | -39.65909 | 25224 ft | 291 kts | 79° |
| 2026-04-23 21:56 | 65.44197 | -39.61074 | 25230 ft | 293 kts | 79° |
| 2026-04-23 21:56 | 65.44493 | -39.56223 | 25223 ft | 294 kts | 79° |
| 2026-04-23 21:57 | 65.44791 | -39.51348 | 25226 ft | 295 kts | 79° |
| 2026-04-23 21:57 | 65.45089 | -39.46456 | 25229 ft | 296 kts | 79° |
| 2026-04-23 21:57 | 65.45385 | -39.41540 | 25226 ft | 298 kts | 80° |
| 2026-04-23 21:57 | 65.45679 | -39.36649 | 25230 ft | 299 kts | 80° |
| 2026-04-23 21:58 | 65.45977 | -39.31676 | 25223 ft | 301 kts | 80° |
| 2026-04-23 21:58 | 65.46274 | -39.26677 | 25225 ft | 303 kts | 80° |
| 2026-04-23 21:58 | 65.46373 | -39.24994 | 25227 ft | 303 kts | 80° |
| 2026-04-23 21:59 | 65.47416 | -39.07142 | 25226 ft | 305 kts | 80° |
| 2026-04-23 21:59 | 65.47633 | -39.03390 | 25225 ft | 305 kts | 80° |
| 2026-04-23 22:00 | 65.47969 | -38.97549 | 25229 ft | 305 kts | 80° |
| 2026-04-23 22:00 | 65.48256 | -38.92507 | 25230 ft | 305 kts | 80° |
| 2026-04-23 22:00 | 65.48546 | -38.87409 | 25225 ft | 305 kts | 80° |
| 2026-04-23 22:00 | 65.48831 | -38.82351 | 25224 ft | 305 kts | 81° |
| 2026-04-23 22:01 | 65.49115 | -38.77272 | 25224 ft | 305 kts | 80° |
| 2026-04-23 22:01 | 65.49391 | -38.72292 | 25227 ft | 305 kts | 81° |
| 2026-04-23 22:01 | 65.49671 | -38.67217 | 25228 ft | 305 kts | 80° |
| 2026-04-23 22:01 | 65.49948 | -38.62171 | 25228 ft | 305 kts | 81° |
| 2026-04-23 22:02 | 65.50225 | -38.57091 | 25231 ft | 305 kts | 81° |
| 2026-04-23 22:02 | 65.50499 | -38.52035 | 25233 ft | 305 kts | 81° |
| 2026-04-23 22:02 | 65.50773 | -38.46951 | 25229 ft | 305 kts | 81° |
| 2026-04-23 22:02 | 65.51045 | -38.41873 | 25229 ft | 305 kts | 81° |
| 2026-04-23 22:03 | 65.51314 | -38.36800 | 25232 ft | 305 kts | 81° |
| 2026-04-23 22:03 | 65.51581 | -38.31756 | 25235 ft | 305 kts | 81° |
| 2026-04-23 22:03 | 65.51847 | -38.26688 | 25235 ft | 305 kts | 81° |
| 2026-04-23 22:03 | 65.52111 | -38.21619 | 25236 ft | 305 kts | 81° |
| 2026-04-23 22:04 | 65.52374 | -38.16542 | 25241 ft | 304 kts | 81° |
| 2026-04-23 22:04 | 65.52634 | -38.11490 | 25242 ft | 305 kts | 81° |
| 2026-04-23 22:04 | 65.52894 | -38.06388 | 25240 ft | 305 kts | 81° |
| 2026-04-23 22:04 | 65.53148 | -38.01404 | 25239 ft | 305 kts | 81° |
| 2026-04-23 22:05 | 65.53408 | -37.96270 | 25239 ft | 303 kts | 81° |
| 2026-04-23 22:05 | 65.53658 | -37.91275 | 25238 ft | 303 kts | 81° |
| 2026-04-23 22:05 | 65.53910 | -37.86224 | 25243 ft | 304 kts | 81° |
| 2026-04-23 22:05 | 65.54160 | -37.81163 | 25245 ft | 304 kts | 81° |
| 2026-04-23 22:06 | 65.54411 | -37.76075 | 25240 ft | 305 kts | 81° |
| 2026-04-23 22:06 | 65.54658 | -37.70999 | 25245 ft | 305 kts | 81° |
| 2026-04-23 22:06 | 65.54904 | -37.65926 | 25244 ft | 305 kts | 81° |
| 2026-04-23 22:06 | 65.55149 | -37.60832 | 25245 ft | 305 kts | 81° |
| 2026-04-23 22:07 | 65.55392 | -37.55739 | 25245 ft | 305 kts | 81° |
| 2026-04-23 22:07 | 65.55633 | -37.50662 | 25246 ft | 305 kts | 81° |
| 2026-04-23 22:07 | 65.55872 | -37.45569 | 25250 ft | 305 kts | 81° |
| 2026-04-23 22:07 | 65.56111 | -37.40468 | 25246 ft | 305 kts | 81° |
| 2026-04-23 22:08 | 65.56347 | -37.35374 | 25251 ft | 305 kts | 81° |
| 2026-04-23 22:08 | 65.56580 | -37.30287 | 25245 ft | 305 kts | 81° |
| 2026-04-23 22:08 | 65.56812 | -37.25180 | 25245 ft | 305 kts | 81° |
| 2026-04-23 22:08 | 65.57025 | -37.20093 | 25243 ft | 306 kts | 84° |
| 2026-04-23 22:09 | 65.57061 | -37.14940 | 25244 ft | 306 kts | 86° |
| 2026-04-23 22:09 | 65.57086 | -37.09797 | 25244 ft | 306 kts | 86° |
| 2026-04-23 22:09 | 65.57122 | -37.04644 | 25245 ft | 306 kts | 86° |
| 2026-04-23 22:09 | 65.57155 | -36.99565 | 25242 ft | 306 kts | 86° |
| 2026-04-23 22:10 | 65.57184 | -36.94362 | 25243 ft | 306 kts | 86° |
| 2026-04-23 22:10 | 65.57205 | -36.89283 | 25243 ft | 306 kts | 86° |
| 2026-04-23 22:10 | 65.57235 | -36.84077 | 25243 ft | 306 kts | 86° |
| 2026-04-23 22:10 | 65.57263 | -36.79003 | 25243 ft | 306 kts | 86° |
| 2026-04-23 22:11 | 65.57284 | -36.73787 | 25243 ft | 306 kts | 86° |
| 2026-04-23 22:11 | 65.57304 | -36.68646 | 25245 ft | 306 kts | 86° |
| 2026-04-23 22:11 | 65.57323 | -36.63579 | 25247 ft | 306 kts | 86° |
| 2026-04-23 22:11 | 65.57340 | -36.58422 | 25247 ft | 306 kts | 86° |
| 2026-04-23 22:12 | 65.57357 | -36.53272 | 25244 ft | 306 kts | 86° |
| 2026-04-23 22:12 | 65.57371 | -36.48108 | 25246 ft | 306 kts | 86° |
| 2026-04-23 22:12 | 65.57382 | -36.43012 | 25544 ft | 295 kts | 86° |
| 2026-04-23 22:12 | 65.57386 | -36.38295 | 26321 ft | 267 kts | 86° |
| 2026-04-23 22:13 | 65.57393 | -36.34042 | 27133 ft | 240 kts | 85° |
| 2026-04-23 22:13 | 65.57399 | -36.30236 | 27919 ft | 216 kts | 85° |
| 2026-04-23 22:13 | 65.57408 | -36.26658 | 28270 ft | 213 kts | 85° |
| 2026-04-23 22:13 | 65.57415 | -36.23073 | 28538 ft | 213 kts | 85° |
| 2026-04-23 22:14 | 65.57417 | -36.19550 | 28810 ft | 212 kts | 85° |
| 2026-04-23 22:14 | 65.57420 | -36.15933 | 29076 ft | 212 kts | 85° |
| 2026-04-23 22:14 | 65.57421 | -36.12408 | 29345 ft | 212 kts | 85° |
| 2026-04-23 22:14 | 65.57422 | -36.08849 | 29612 ft | 212 kts | 85° |
| 2026-04-23 22:15 | 65.57422 | -36.05282 | 29866 ft | 212 kts | 85° |
| 2026-04-23 22:15 | 65.57421 | -36.01735 | 30128 ft | 211 kts | 85° |
| 2026-04-23 22:15 | 65.57418 | -35.98184 | 30379 ft | 211 kts | 85° |
| 2026-04-23 22:15 | 65.57414 | -35.94644 | 30605 ft | 210 kts | 85° |
| 2026-04-23 22:16 | 65.57410 | -35.91112 | 30821 ft | 210 kts | 85° |
| 2026-04-23 22:16 | 65.57405 | -35.87590 | 31040 ft | 209 kts | 85° |
| 2026-04-23 22:16 | 65.57399 | -35.84074 | 31242 ft | 210 kts | 85° |
| 2026-04-23 22:16 | 65.57395 | -35.80449 | 31251 ft | 220 kts | 85° |
| 2026-04-23 22:17 | 65.57387 | -35.76679 | 31261 ft | 229 kts | 85° |
| 2026-04-23 22:17 | 65.57377 | -35.72767 | 31262 ft | 237 kts | 85° |
| 2026-04-23 22:17 | 65.57366 | -35.68711 | 31260 ft | 245 kts | 85° |
| 2026-04-23 22:17 | 65.57362 | -35.67378 | 31261 ft | 247 kts | 85° |